createdAt,value
2018-06-29T00:02:08.027Z,6.07
2018-06-29T00:04:36.443Z,5.67
2018-06-29T00:07:04.987Z,5.37
2018-06-29T00:09:33.378Z,5.50
2018-06-29T00:12:01.864Z,5.10
2018-06-29T00:14:30.437Z,5.33
2018-06-29T00:16:58.995Z,5.00
2018-06-29T00:19:27.391Z,5.50
2018-06-29T00:21:56.403Z,5.13
2018-06-29T00:24:25.168Z,5.13
2018-06-29T00:26:53.888Z,5.17
2018-06-29T00:29:22.300Z,6.20
2018-06-29T00:31:51.162Z,6.93
2018-06-29T00:34:19.553Z,5.17
2018-06-29T00:36:47.984Z,5.17
2018-06-29T00:39:16.372Z,5.33
2018-06-29T00:41:44.764Z,4.90
2018-06-29T00:44:13.168Z,5.60
2018-06-29T00:46:41.563Z,5.50
2018-06-29T00:49:09.955Z,5.63
2018-06-29T00:51:38.356Z,5.00
2018-06-29T00:54:06.748Z,6.00
2018-06-29T00:56:35.188Z,4.90
2018-06-29T00:59:03.655Z,5.20
2018-06-29T01:01:32.046Z,4.67
2018-06-29T01:04:00.499Z,4.30
2018-06-29T01:06:28.995Z,4.70
2018-06-29T01:08:57.459Z,4.43
2018-06-29T01:11:25.863Z,3.63
2018-06-29T01:13:54.323Z,4.27
2018-06-29T01:16:22.759Z,3.63
2018-06-29T01:18:51.280Z,4.10
2018-06-29T01:21:19.679Z,4.13
2018-06-29T01:23:48.115Z,3.90
2018-06-29T01:26:16.556Z,4.17
2018-06-29T01:28:45.107Z,3.50
2018-06-29T01:31:13.443Z,3.23
2018-06-29T01:33:41.871Z,3.90
2018-06-29T01:36:10.279Z,4.13
2018-06-29T01:38:38.722Z,4.10
2018-06-29T01:41:07.161Z,3.57
2018-06-29T01:43:35.594Z,3.80
2018-06-29T01:46:04.092Z,3.77
2018-06-29T01:48:32.539Z,3.43
2018-06-29T01:51:00.956Z,3.67
2018-06-29T01:53:29.355Z,3.73
2018-06-29T01:55:57.771Z,3.43
2018-06-29T01:58:26.201Z,3.60
2018-06-29T02:00:54.666Z,3.77
2018-06-29T02:03:23.067Z,3.57
2018-06-29T02:05:51.195Z,4.23
2018-06-29T02:08:19.617Z,3.07
2018-06-29T02:10:48.043Z,4.00
2018-06-29T02:13:16.438Z,3.70
2018-06-29T02:15:44.859Z,3.67
2018-06-29T02:18:13.315Z,4.30
2018-06-29T02:20:41.755Z,3.93
2018-06-29T02:23:10.171Z,4.00
2018-06-29T02:25:38.596Z,3.40
2018-06-29T02:28:06.996Z,3.23
2018-06-29T02:30:35.550Z,3.37
2018-06-29T02:33:03.894Z,3.63
2018-06-29T02:35:32.338Z,3.60
2018-06-29T02:38:00.745Z,3.67
2018-06-29T02:40:29.207Z,3.23
2018-06-29T02:42:57.611Z,3.17
2018-06-29T02:45:26.028Z,3.70
2018-06-29T02:47:54.470Z,3.13
2018-06-29T02:50:22.947Z,4.13
2018-06-29T02:52:51.381Z,3.27
2018-06-29T02:55:19.812Z,3.17
2018-06-29T02:57:48.208Z,2.93
2018-06-29T03:00:16.644Z,3.70
2018-06-29T03:02:45.049Z,3.50
2018-06-29T03:05:13.468Z,3.60
2018-06-29T03:07:41.863Z,3.07
2018-06-29T03:10:10.290Z,3.07
2018-06-29T03:12:38.688Z,3.30
2018-06-29T03:15:07.108Z,3.87
2018-06-29T03:17:35.552Z,2.97
2018-06-29T03:20:04.120Z,3.10
2018-06-29T03:22:32.523Z,3.30
2018-06-29T03:25:00.907Z,3.23
2018-06-29T03:27:29.361Z,2.93
2018-06-29T03:29:57.792Z,3.00
2018-06-29T03:32:26.203Z,3.57
2018-06-29T03:34:54.591Z,3.60
2018-06-29T03:37:22.994Z,3.60
2018-06-29T03:39:51.387Z,3.00
2018-06-29T03:42:19.799Z,3.30
2018-06-29T03:44:48.185Z,3.70
2018-06-29T03:47:16.596Z,3.33
2018-06-29T03:49:44.989Z,3.23
2018-06-29T03:52:13.388Z,3.83
2018-06-29T03:54:41.792Z,4.37
2018-06-29T03:57:10.234Z,3.77
2018-06-29T03:59:38.647Z,4.10
2018-06-29T04:02:07.048Z,4.13
2018-06-29T04:04:35.468Z,3.80
2018-06-29T04:07:03.961Z,3.37
2018-06-29T04:09:32.347Z,3.93
2018-06-29T04:12:00.735Z,4.20
2018-06-29T04:14:29.191Z,4.10
2018-06-29T04:16:57.591Z,4.10
2018-06-29T04:19:26.024Z,3.70
2018-06-29T04:21:54.432Z,4.00
2018-06-29T04:24:22.891Z,4.60
2018-06-29T04:26:51.418Z,4.40
2018-06-29T04:29:19.879Z,4.30
2018-06-29T04:31:48.296Z,3.60
2018-06-29T04:34:16.700Z,3.50
2018-06-29T04:36:45.094Z,3.77
2018-06-29T04:39:13.504Z,3.23
2018-06-29T04:41:41.892Z,3.63
2018-06-29T04:44:10.008Z,3.60
2018-06-29T04:46:38.399Z,3.63
2018-06-29T04:49:06.816Z,3.90
2018-06-29T04:51:35.215Z,3.60
2018-06-29T04:54:03.338Z,3.60
2018-06-29T04:56:31.740Z,3.70
2018-06-29T04:59:00.174Z,3.30
2018-06-29T05:01:28.569Z,3.73
2018-06-29T05:03:56.986Z,3.20
2018-06-29T05:06:25.403Z,3.13
2018-06-29T05:08:53.853Z,3.27
2018-06-29T05:11:22.257Z,3.30
2018-06-29T05:13:50.692Z,2.90
2018-06-29T05:16:19.088Z,2.70
2018-06-29T05:18:47.489Z,2.97
2018-06-29T05:21:15.930Z,3.63
2018-06-29T05:23:44.333Z,2.93
2018-06-29T05:26:12.751Z,2.73
2018-06-29T05:28:40.896Z,2.90
2018-06-29T05:31:09.297Z,2.97
2018-06-29T05:33:37.681Z,2.90
2018-06-29T05:36:07.044Z,2.90
2018-06-29T05:38:35.441Z,2.90
2018-06-29T05:41:03.917Z,2.73
2018-06-29T05:44:35.593Z,2.87
2018-06-29T05:47:04.120Z,2.60
2018-06-29T05:49:32.440Z,2.87
2018-06-29T05:52:00.858Z,2.57
2018-06-29T05:54:29.244Z,2.90
2018-06-29T05:56:57.668Z,3.73
2018-06-29T05:59:26.108Z,2.50
2018-06-29T06:01:54.581Z,2.30
2018-06-29T06:04:23.017Z,2.20
2018-06-29T06:06:51.468Z,2.93
2018-06-29T06:09:19.908Z,2.77
2018-06-29T06:11:48.348Z,2.30
2018-06-29T06:14:16.763Z,3.13
2018-06-29T06:16:45.174Z,2.27
2018-06-29T06:19:24.861Z,3.20
2018-06-29T06:21:53.515Z,2.70
2018-06-29T06:24:21.891Z,2.43
2018-06-29T06:26:50.339Z,2.13
2018-06-29T06:29:18.725Z,2.57
2018-06-29T06:31:47.179Z,2.50
2018-06-29T06:34:15.572Z,2.73
2018-06-29T06:36:43.985Z,2.90
2018-06-29T06:39:12.696Z,2.50
2018-06-29T06:41:47.479Z,2.70
2018-06-29T06:44:15.900Z,3.10
2018-06-29T06:46:44.337Z,2.80
2018-06-29T06:49:12.751Z,2.73
2018-06-29T06:51:41.145Z,2.93
2018-06-29T06:54:09.552Z,2.57
2018-06-29T06:56:37.980Z,2.70
2018-06-29T06:59:06.389Z,2.50
2018-06-29T07:01:34.788Z,2.87
2018-06-29T07:04:03.199Z,2.40
2018-06-29T07:06:31.660Z,2.70
2018-06-29T07:08:59.794Z,3.00
2018-06-29T07:11:28.245Z,2.90
2018-06-29T07:13:56.680Z,2.83
2018-06-29T07:16:25.095Z,3.00
2018-06-29T07:18:53.668Z,2.97
2018-06-29T07:21:22.057Z,3.33
2018-06-29T07:23:50.499Z,2.43
2018-06-29T07:26:18.919Z,2.60
2018-06-29T07:28:47.336Z,2.60
2018-06-29T07:31:15.737Z,2.47
2018-06-29T07:33:44.149Z,2.27
2018-06-29T07:36:12.581Z,2.93
2018-06-29T07:38:41.139Z,2.60
2018-06-29T07:41:09.537Z,2.50
2018-06-29T07:43:37.955Z,2.47
2018-06-29T07:46:06.952Z,2.80
2018-06-29T07:48:35.363Z,2.53
2018-06-29T07:51:03.828Z,2.57
2018-06-29T07:53:32.221Z,2.40
2018-06-29T07:56:00.661Z,2.90
2018-06-29T07:58:29.259Z,2.20
2018-06-29T08:01:03.453Z,2.30
2018-06-29T08:03:33.662Z,3.07
2018-06-29T08:06:02.124Z,2.57
2018-06-29T08:08:30.548Z,2.80
2018-06-29T08:10:59.435Z,2.80
2018-06-29T08:13:28.499Z,3.13
2018-06-29T08:15:56.936Z,2.50
2018-06-29T08:18:25.790Z,2.57
2018-06-29T08:20:54.391Z,2.77
2018-06-29T08:23:27.904Z,2.90
2018-06-29T08:26:06.455Z,2.47
2018-06-29T08:28:34.871Z,2.27
2018-06-29T08:31:03.289Z,3.00
2018-06-29T08:33:31.683Z,2.03
2018-06-29T08:36:00.125Z,2.77
2018-06-29T08:38:28.579Z,2.90
2018-06-29T08:40:57.041Z,3.10
2018-06-29T08:43:25.449Z,2.40
2018-06-29T08:45:53.885Z,3.20
2018-06-29T08:48:22.274Z,3.43
2018-06-29T08:50:50.692Z,2.73
2018-06-29T08:53:19.112Z,3.03
2018-06-29T08:55:47.298Z,2.63
2018-06-29T08:58:15.684Z,2.60
2018-06-29T09:00:44.089Z,2.70
2018-06-29T09:03:12.522Z,2.93
2018-06-29T09:05:40.977Z,2.50
2018-06-29T09:08:09.605Z,2.90
2018-06-29T09:10:38.075Z,2.70
2018-06-29T09:13:06.745Z,2.80
2018-06-29T09:15:35.343Z,2.90
2018-06-29T09:18:03.771Z,3.17
2018-06-29T09:20:32.167Z,2.83
2018-06-29T09:23:00.612Z,2.50
2018-06-29T09:25:29.172Z,3.00
2018-06-29T09:27:57.287Z,2.93
2018-06-29T09:30:26.052Z,2.90
2018-06-29T09:32:54.752Z,2.67
2018-06-29T09:35:23.188Z,2.80
2018-06-29T09:37:53.218Z,2.50
2018-06-29T09:40:21.604Z,2.70
2018-06-29T09:42:50.060Z,2.77
2018-06-29T09:45:18.491Z,2.50
2018-06-29T09:47:46.928Z,2.30
2018-06-29T09:50:15.356Z,2.30
2018-06-29T09:52:43.778Z,2.47
2018-06-29T09:55:12.165Z,2.70
2018-06-29T09:57:40.575Z,2.53
2018-06-29T10:00:09.953Z,2.93
2018-06-29T10:02:39.277Z,2.37
2018-06-29T10:05:07.008Z,2.60
2018-06-29T10:07:35.891Z,2.57
2018-06-29T10:10:04.441Z,2.40
2018-06-29T10:12:32.861Z,3.00
2018-06-29T10:15:02.097Z,2.97
2018-06-29T10:17:30.584Z,2.30
2018-06-29T10:19:59.081Z,3.03
2018-06-29T10:22:27.477Z,3.00
2018-06-29T10:24:55.858Z,2.67
2018-06-29T10:27:25.119Z,2.63
2018-06-29T10:29:53.744Z,2.67
2018-06-29T10:32:22.124Z,3.23
2018-06-29T10:34:50.544Z,2.60
2018-06-29T10:37:18.949Z,2.50
2018-06-29T10:39:47.383Z,2.57
2018-06-29T10:42:15.795Z,3.20
2018-06-29T10:44:44.287Z,2.90
2018-06-29T10:47:12.637Z,2.63
2018-06-29T10:49:41.096Z,2.37
2018-06-29T10:52:09.491Z,2.73
2018-06-29T10:54:37.908Z,3.30
2018-06-29T10:57:07.047Z,2.37
2018-06-29T10:59:35.282Z,2.17
2018-06-29T11:02:03.701Z,2.60
2018-06-29T11:04:32.135Z,2.27
2018-06-29T11:07:00.599Z,2.90
2018-06-29T11:09:28.979Z,2.33
2018-06-29T11:11:57.459Z,2.33
2018-06-29T11:14:25.890Z,2.30
2018-06-29T11:16:54.309Z,2.40
2018-06-29T11:19:22.688Z,2.90
2018-06-29T11:21:51.103Z,2.67
2018-06-29T11:24:19.489Z,2.90
2018-06-29T11:26:48.132Z,2.37
2018-06-29T11:29:16.803Z,2.43
2018-06-29T11:31:44.939Z,2.50
2018-06-29T11:34:13.420Z,2.67
2018-06-29T11:36:41.876Z,3.03
2018-06-29T11:39:13.301Z,2.50
2018-06-29T11:41:42.044Z,2.43
2018-06-29T11:44:10.816Z,2.33
2018-06-29T11:46:39.488Z,2.30
2018-06-29T11:49:08.151Z,2.80
2018-06-29T11:51:36.646Z,2.40
2018-06-29T11:54:04.853Z,2.80
2018-06-29T11:56:33.262Z,2.27
2018-06-29T11:59:01.658Z,2.57
2018-06-29T12:01:30.139Z,2.80
2018-06-29T12:03:58.648Z,2.43
2018-06-29T12:06:27.076Z,2.70
2018-06-29T12:08:55.488Z,2.37
2018-06-29T12:11:23.917Z,2.77
2018-06-29T12:13:52.305Z,2.37
2018-06-29T12:16:20.714Z,2.47
2018-06-29T12:18:49.139Z,2.63
2018-06-29T12:21:17.529Z,3.20
2018-06-29T12:23:45.945Z,2.30
2018-06-29T12:26:14.374Z,2.80
2018-06-29T12:28:42.795Z,2.00
2018-06-29T12:31:11.181Z,2.77
2018-06-29T12:33:39.615Z,2.47
2018-06-29T12:36:08.046Z,2.37
2018-06-29T12:38:36.463Z,2.90
2018-06-29T12:41:05.769Z,2.57
2018-06-29T12:43:34.289Z,3.13
2018-06-29T12:46:02.741Z,2.33
2018-06-29T12:48:31.180Z,2.40
2018-06-29T12:50:59.859Z,2.63
2018-06-29T12:53:28.014Z,2.20
2018-06-29T12:55:56.518Z,2.80
2018-06-29T12:58:24.568Z,2.53
2018-06-29T13:00:53.009Z,2.37
2018-06-29T13:03:21.453Z,2.60
2018-06-29T13:05:49.904Z,2.40
2018-06-29T13:08:18.554Z,2.07
2018-06-29T13:10:47.013Z,2.10
2018-06-29T13:13:15.450Z,2.20
2018-06-29T13:15:43.888Z,2.47
2018-06-29T13:18:12.328Z,2.17
2018-06-29T13:20:40.713Z,2.37
2018-06-29T13:23:09.114Z,1.90
2018-06-29T13:25:37.544Z,2.83
2018-06-29T13:28:06.227Z,2.20
2018-06-29T13:30:34.664Z,2.50
2018-06-29T13:33:03.051Z,2.23
2018-06-29T13:35:31.465Z,2.23
2018-06-29T13:38:00.061Z,2.10
2018-06-29T13:40:28.867Z,2.60
2018-06-29T13:42:57.254Z,2.20
2018-06-29T13:45:25.676Z,1.97
2018-06-29T13:47:54.080Z,2.47
2018-06-29T13:50:22.488Z,2.03
2018-06-29T13:52:50.880Z,2.57
2018-06-29T13:55:19.297Z,1.90
2018-06-29T13:57:47.697Z,2.03
2018-06-29T14:00:16.141Z,2.13
2018-06-29T14:02:44.540Z,2.60
2018-06-29T14:05:13.052Z,1.73
2018-06-29T14:07:41.492Z,2.10
2018-06-29T14:10:10.068Z,1.80
2018-06-29T14:12:38.483Z,2.40
2018-06-29T14:15:06.615Z,2.00
2018-06-29T14:17:35.044Z,2.23
2018-06-29T14:20:03.529Z,2.20
2018-06-29T14:22:31.929Z,1.90
2018-06-29T14:25:00.496Z,2.10
2018-06-29T14:27:28.902Z,2.87
2018-06-29T14:29:57.352Z,2.10
2018-06-29T14:32:25.772Z,2.30
2018-06-29T14:34:54.184Z,2.30
2018-06-29T14:37:22.612Z,2.20
2018-06-29T14:39:51.038Z,2.10
2018-06-29T14:42:19.469Z,2.30
2018-06-29T14:44:47.897Z,2.30
2018-06-29T14:47:16.320Z,2.23
2018-06-29T14:49:44.784Z,1.90
2018-06-29T14:52:13.170Z,2.23
2018-06-29T14:54:41.568Z,1.87
2018-06-29T14:57:09.995Z,1.97
2018-06-29T14:59:38.481Z,2.50
2018-06-29T15:02:07.103Z,2.10
2018-06-29T15:04:35.505Z,1.90
2018-06-29T15:07:04.818Z,2.07
2018-06-29T15:09:33.341Z,2.17
2018-06-29T15:12:01.716Z,2.20
2018-06-29T15:14:30.131Z,2.40
2018-06-29T15:16:58.548Z,2.03
2018-06-29T15:19:26.940Z,1.83
2018-06-29T15:21:55.377Z,2.23
2018-06-29T15:24:23.785Z,2.00
2018-06-29T15:26:52.204Z,1.87
2018-06-29T15:29:20.608Z,2.37
2018-06-29T15:31:49.048Z,2.00
2018-06-29T15:34:17.443Z,2.07
2018-06-29T15:36:45.839Z,2.57
2018-06-29T15:39:14.267Z,1.93
2018-06-29T15:41:42.692Z,2.17
2018-06-29T15:44:11.647Z,1.80
2018-06-29T15:46:40.071Z,2.23
2018-06-29T15:49:09.432Z,2.60
2018-06-29T15:51:37.573Z,1.90
2018-06-29T15:54:06.013Z,2.50
2018-06-29T15:56:34.460Z,2.43
2018-06-29T15:59:02.901Z,1.80
2018-06-29T16:01:31.342Z,2.40
2018-06-29T16:03:59.839Z,1.90
2018-06-29T16:06:28.307Z,2.40
2018-06-29T16:08:56.740Z,2.60
2018-06-29T16:11:25.132Z,2.50
2018-06-29T16:13:53.663Z,2.07
2018-06-29T16:16:22.059Z,1.93
2018-06-29T16:18:50.489Z,2.60
2018-06-29T16:21:18.891Z,2.00
2018-06-29T16:23:47.312Z,2.10
2018-06-29T16:26:15.715Z,1.97
2018-06-29T16:28:44.133Z,2.40
2018-06-29T16:31:12.544Z,2.20
2018-06-29T16:33:40.948Z,2.03
2018-06-29T16:36:09.377Z,2.10
2018-06-29T16:38:37.803Z,2.47
2018-06-29T16:41:06.212Z,2.70
2018-06-29T16:43:34.802Z,2.80
2018-06-29T16:46:03.232Z,4.20
2018-06-29T16:48:31.681Z,2.20
2018-06-29T16:51:03.167Z,1.70
2018-06-29T16:53:31.626Z,2.37
2018-06-29T16:56:00.099Z,2.57
2018-06-29T16:58:28.500Z,2.07
2018-06-29T17:00:56.956Z,2.70
2018-06-29T17:03:25.353Z,2.73
2018-06-29T17:05:53.759Z,2.53
2018-06-29T17:08:22.169Z,2.30
2018-06-29T17:10:50.604Z,2.30
2018-06-29T17:13:18.996Z,2.00
2018-06-29T17:15:47.409Z,2.17
2018-06-29T17:18:15.824Z,2.30
2018-06-29T17:20:47.112Z,2.07
2018-06-29T17:23:15.524Z,2.17
2018-06-29T17:25:43.912Z,2.70
2018-06-29T17:28:12.796Z,2.40
2018-06-29T17:30:41.220Z,3.03
2018-06-29T17:33:09.633Z,2.53
2018-06-29T17:35:38.081Z,2.40
2018-06-29T17:38:06.540Z,2.70
2018-06-29T17:40:34.964Z,2.27
2018-06-29T17:43:03.407Z,2.47
2018-06-29T17:45:31.820Z,2.03
2018-06-29T17:48:00.241Z,2.53
2018-06-29T17:50:28.370Z,2.20
2018-06-29T17:52:56.784Z,2.47
2018-06-29T17:55:25.288Z,2.50
2018-06-29T17:57:53.629Z,2.53
2018-06-29T18:00:22.060Z,2.17
2018-06-29T18:02:50.508Z,2.43
2018-06-29T18:05:18.992Z,2.13
2018-06-29T18:07:47.383Z,2.30
2018-06-29T18:10:15.836Z,2.40
2018-06-29T18:12:44.307Z,3.03
2018-06-29T18:15:12.676Z,2.70
2018-06-29T18:17:41.088Z,2.93
2018-06-29T18:20:09.521Z,2.40
2018-06-29T18:22:38.171Z,2.93
2018-06-29T18:25:06.681Z,2.53
2018-06-29T18:27:35.059Z,2.53
2018-06-29T18:30:03.532Z,2.70
2018-06-29T18:32:31.631Z,2.70
2018-06-29T18:35:00.065Z,2.50
2018-06-29T18:37:28.469Z,3.00
2018-06-29T18:39:56.895Z,2.47
2018-06-29T18:42:25.283Z,2.33
2018-06-29T18:44:53.693Z,2.87
2018-06-29T18:47:22.121Z,2.60
2018-06-29T18:49:50.548Z,3.03
2018-06-29T18:52:18.939Z,2.80
2018-06-29T18:54:47.379Z,3.27
2018-06-29T18:57:15.785Z,2.53
2018-06-29T18:59:44.224Z,2.93
2018-06-29T19:02:12.625Z,2.60
2018-06-29T19:04:41.041Z,2.73
2018-06-29T19:07:09.436Z,3.37
2018-06-29T19:09:37.877Z,2.90
2018-06-29T19:12:06.323Z,3.03
2018-06-29T19:14:34.756Z,2.97
2018-06-29T19:17:03.187Z,2.17
2018-06-29T19:19:31.656Z,2.67
2018-06-29T19:22:00.048Z,3.10
2018-06-29T19:24:28.632Z,3.03
2018-06-29T19:26:57.025Z,3.33
2018-06-29T19:29:25.452Z,3.30
2018-06-29T19:31:53.880Z,2.83
2018-06-29T19:34:22.316Z,3.47
2018-06-29T19:36:50.714Z,3.50
2018-06-29T19:39:19.169Z,3.60
2018-06-29T19:41:47.572Z,3.53
2018-06-29T19:44:16.057Z,3.30
2018-06-29T19:46:44.406Z,3.20
2018-06-29T19:49:12.821Z,3.50
2018-06-29T19:51:41.225Z,3.20
2018-06-29T19:54:09.629Z,3.87
2018-06-29T19:56:38.109Z,3.40
2018-06-29T19:59:06.555Z,3.07
2018-06-29T20:01:34.980Z,3.83
2018-06-29T20:04:03.433Z,3.80
2018-06-29T20:06:31.851Z,3.67
2018-06-29T20:09:00.239Z,3.40
2018-06-29T20:11:28.724Z,3.07
2018-06-29T20:13:57.077Z,3.40
2018-06-29T20:16:25.492Z,3.43
2018-06-29T20:18:53.879Z,3.40
2018-06-29T20:21:22.300Z,3.70
2018-06-29T20:23:50.708Z,4.20
2018-06-29T20:26:19.156Z,3.50
2018-06-29T20:28:47.561Z,3.33
2018-06-29T20:31:16.009Z,3.93
2018-06-29T20:33:44.396Z,4.13
2018-06-29T20:36:12.832Z,3.87
2018-06-29T20:38:41.345Z,3.40
2018-06-29T20:41:09.708Z,3.30
2018-06-29T20:43:38.118Z,2.70
2018-06-29T20:46:06.557Z,3.27
2018-06-29T20:48:35.047Z,3.10
2018-06-29T20:51:03.449Z,3.43
2018-06-29T20:53:31.856Z,3.53
2018-06-29T20:56:00.289Z,3.33
2018-06-29T20:58:28.813Z,3.13
2018-06-29T21:00:57.232Z,2.80
2018-06-29T21:03:25.649Z,3.23
2018-06-29T21:05:54.061Z,3.57
2018-06-29T21:08:22.496Z,3.60
2018-06-29T21:10:50.888Z,2.77
2018-06-29T21:13:19.824Z,3.07
2018-06-29T21:15:48.261Z,2.57
2018-06-29T21:18:16.764Z,3.13
2018-06-29T21:20:45.168Z,3.20
2018-06-29T21:23:13.652Z,3.40
2018-06-29T21:25:42.080Z,2.80
2018-06-29T21:28:10.503Z,2.70
2018-06-29T21:30:38.904Z,3.27
2018-06-29T21:33:07.344Z,3.13
2018-06-29T21:35:35.740Z,2.53
2018-06-29T21:38:04.156Z,3.53
2018-06-29T21:40:32.553Z,3.40
2018-06-29T21:43:00.987Z,3.33
2018-06-29T21:45:29.372Z,3.10
2018-06-29T21:47:57.831Z,2.83
2018-06-29T21:50:26.224Z,2.97
2018-06-29T21:52:54.651Z,2.50
2018-06-29T21:55:23.057Z,3.17
2018-06-29T21:57:51.479Z,2.87
2018-06-29T22:00:19.917Z,2.97
2018-06-29T22:02:48.356Z,3.53
2018-06-29T22:05:17.222Z,3.60
2018-06-29T22:07:45.909Z,2.57
2018-06-29T22:10:14.338Z,2.40
2018-06-29T22:12:42.736Z,2.77
2018-06-29T22:15:16.256Z,3.30
2018-06-29T22:17:44.644Z,3.27
2018-06-29T22:20:13.060Z,3.70
2018-06-29T22:22:41.465Z,2.77
2018-06-29T22:25:10.471Z,2.53
2018-06-29T22:27:38.860Z,3.40
2018-06-29T22:30:07.428Z,3.13
2018-06-29T22:32:35.809Z,2.87
2018-06-29T22:35:04.353Z,2.90
2018-06-29T22:37:32.853Z,3.60
2018-06-29T22:40:01.259Z,3.33
2018-06-29T22:42:36.072Z,3.00
2018-06-29T22:45:04.601Z,3.03
2018-06-29T22:47:32.980Z,3.27
2018-06-29T22:50:01.400Z,2.90
2018-06-29T22:52:29.788Z,2.97
2018-06-29T22:54:58.405Z,3.33
2018-06-29T22:57:26.975Z,3.27
2018-06-29T22:59:55.420Z,3.10
2018-06-29T23:02:23.816Z,2.90
2018-06-29T23:04:52.224Z,3.83
2018-06-29T23:07:20.652Z,3.30
2018-06-29T23:09:49.065Z,3.10
2018-06-29T23:12:17.464Z,3.43
2018-06-29T23:14:45.868Z,2.57
2018-06-29T23:17:14.259Z,3.03
2018-06-29T23:19:42.676Z,3.10
2018-06-29T23:22:17.404Z,3.00
2018-06-29T23:24:45.816Z,2.57
2018-06-29T23:27:14.202Z,2.87
2018-06-29T23:29:42.678Z,3.13
2018-06-29T23:32:11.080Z,3.00
2018-06-29T23:34:39.503Z,3.23
2018-06-29T23:37:07.943Z,3.23
2018-06-29T23:39:36.331Z,2.80
2018-06-29T23:42:04.792Z,3.00
2018-06-29T23:44:34.019Z,2.50
2018-06-29T23:47:02.685Z,3.03
2018-06-29T23:49:31.080Z,2.83
2018-06-29T23:51:59.520Z,2.70
2018-06-29T23:54:27.933Z,2.80
2018-06-29T23:56:56.350Z,3.10
2018-06-29T23:59:24.764Z,2.53
